sensor_id;sensor_type;location;lat;lon;timestamp;pressure;altitude;pressure_sealevel;temperature;humidity
64521;BME280;50896;46.714;17.322;2023-12-28T00:02:11;101175.41;;;6.87;100.00
64521;BME280;50896;46.714;17.322;2023-12-28T00:04:40;101170.81;;;7.00;100.00
64521;BME280;50896;46.714;17.322;2023-12-28T00:07:07;101159.75;;;6.95;100.00
64521;BME280;50896;46.714;17.322;2023-12-28T00:09:34;101165.41;;;7.01;100.00
64521;BME280;50896;46.714;17.322;2023-12-28T00:12:01;101158.31;;;7.13;100.00
64521;BME280;50896;46.714;17.322;2023-12-28T00:14:27;101161.19;;;7.22;100.00
64521;BME280;50896;46.714;17.322;2023-12-28T00:16:54;101154.69;;;7.14;100.00
64521;BME280;50896;46.714;17.322;2023-12-28T00:19:21;101152.88;;;7.26;100.00
64521;BME280;50896;46.714;17.322;2023-12-28T00:21:49;101160.44;;;7.31;100.00
64521;BME280;50896;46.714;17.322;2023-12-28T00:24:16;101152.50;;;7.31;100.00
64521;BME280;50896;46.714;17.322;2023-12-28T00:26:43;101160.31;;;7.32;100.00
64521;BME280;50896;46.714;17.322;2023-12-28T00:29:11;101162.97;;;7.21;100.00
64521;BME280;50896;46.714;17.322;2023-12-28T00:31:38;101161.09;;;7.12;100.00
64521;BME280;50896;46.714;17.322;2023-12-28T00:34:05;101166.97;;;7.04;100.00
64521;BME280;50896;46.714;17.322;2023-12-28T00:36:32;101166.16;;;6.92;100.00
64521;BME280;50896;46.714;17.322;2023-12-28T00:39:00;101166.84;;;6.83;100.00
64521;BME280;50896;46.714;17.322;2023-12-28T00:41:27;101156.78;;;6.77;100.00
64521;BME280;50896;46.714;17.322;2023-12-28T00:43:54;101169.94;;;6.65;100.00
64521;BME280;50896;46.714;17.322;2023-12-28T00:46:21;101168.41;;;6.63;100.00
64521;BME280;50896;46.714;17.322;2023-12-28T00:48:48;101171.59;;;6.44;100.00
64521;BME280;50896;46.714;17.322;2023-12-28T00:51:15;101175.84;;;6.22;100.00
64521;BME280;50896;46.714;17.322;2023-12-28T00:53:42;101171.44;;;5.98;100.00
64521;BME280;50896;46.714;17.322;2023-12-28T00:56:12;101179.28;;;5.87;100.00
64521;BME280;50896;46.714;17.322;2023-12-28T00:58:39;101165.63;;;5.82;100.00
64521;BME280;50896;46.714;17.322;2023-12-28T01:01:08;101174.34;;;5.82;100.00
64521;BME280;50896;46.714;17.322;2023-12-28T01:03:35;101167.97;;;5.74;100.00
64521;BME280;50896;46.714;17.322;2023-12-28T01:06:04;101167.84;;;5.75;100.00
64521;BME280;50896;46.714;17.322;2023-12-28T01:08:32;101175.66;;;5.77;100.00
64521;BME280;50896;46.714;17.322;2023-12-28T01:11:01;101171.50;;;5.86;100.00
64521;BME280;50896;46.714;17.322;2023-12-28T01:13:28;101177.47;;;6.01;100.00
64521;BME280;50896;46.714;17.322;2023-12-28T01:15:55;101189.28;;;5.95;100.00
64521;BME280;50896;46.714;17.322;2023-12-28T01:18:22;101185.09;;;5.92;100.00
64521;BME280;50896;46.714;17.322;2023-12-28T01:20:50;101185.72;;;5.96;100.00
64521;BME280;50896;46.714;17.322;2023-12-28T01:23:17;101178.63;;;5.96;100.00
64521;BME280;50896;46.714;17.322;2023-12-28T01:25:44;101175.94;;;6.09;100.00
64521;BME280;50896;46.714;17.322;2023-12-28T01:28:11;101173.81;;;6.14;100.00
64521;BME280;50896;46.714;17.322;2023-12-28T01:30:38;101165.88;;;6.14;100.00
64521;BME280;50896;46.714;17.322;2023-12-28T01:33:05;101164.69;;;6.19;100.00
64521;BME280;50896;46.714;17.322;2023-12-28T01:35:32;101146.44;;;6.15;100.00
64521;BME280;50896;46.714;17.322;2023-12-28T01:37:58;101149.09;;;6.15;100.00
64521;BME280;50896;46.714;17.322;2023-12-28T01:40:27;101153.41;;;6.16;100.00
64521;BME280;50896;46.714;17.322;2023-12-28T01:42:54;101162.75;;;6.09;100.00
64521;BME280;50896;46.714;17.322;2023-12-28T01:45:21;101154.69;;;6.11;100.00
64521;BME280;50896;46.714;17.322;2023-12-28T01:47:48;101157.13;;;6.14;100.00
64521;BME280;50896;46.714;17.322;2023-12-28T01:50:16;101152.69;;;6.14;100.00
64521;BME280;50896;46.714;17.322;2023-12-28T01:52:43;101146.41;;;6.04;100.00
64521;BME280;50896;46.714;17.322;2023-12-28T01:55:11;101153.97;;;6.09;100.00
64521;BME280;50896;46.714;17.322;2023-12-28T01:57:39;101150.03;;;6.14;100.00
64521;BME280;50896;46.714;17.322;2023-12-28T02:00:07;101146.19;;;6.07;100.00
64521;BME280;50896;46.714;17.322;2023-12-28T02:02:41;101147.84;;;6.08;100.00
64521;BME280;50896;46.714;17.322;2023-12-28T02:05:10;101146.19;;;6.07;100.00
64521;BME280;50896;46.714;17.322;2023-12-28T02:07:38;101141.72;;;6.08;100.00
64521;BME280;50896;46.714;17.322;2023-12-28T02:10:06;101142.84;;;6.16;100.00
64521;BME280;50896;46.714;17.322;2023-12-28T02:12:33;101138.53;;;6.15;100.00
64521;BME280;50896;46.714;17.322;2023-12-28T02:15:01;101139.75;;;6.23;100.00
64521;BME280;50896;46.714;17.322;2023-12-28T02:17:32;101133.13;;;6.17;100.00
64521;BME280;50896;46.714;17.322;2023-12-28T02:20:01;101137.56;;;6.16;100.00
64521;BME280;50896;46.714;17.322;2023-12-28T02:22:33;101132.28;;;6.16;100.00
64521;BME280;50896;46.714;17.322;2023-12-28T02:25:13;101128.91;;;6.14;100.00
64521;BME280;50896;46.714;17.322;2023-12-28T02:27:42;101124.72;;;6.12;100.00
64521;BME280;50896;46.714;17.322;2023-12-28T02:30:11;101122.19;;;6.10;100.00
64521;BME280;50896;46.714;17.322;2023-12-28T02:35:33;101120.72;;;6.06;100.00
64521;BME280;50896;46.714;17.322;2023-12-28T02:38:09;101117.47;;;6.03;100.00
64521;BME280;50896;46.714;17.322;2023-12-28T02:40:38;101112.31;;;6.01;100.00
64521;BME280;50896;46.714;17.322;2023-12-28T02:43:08;101113.88;;;6.04;100.00
64521;BME280;50896;46.714;17.322;2023-12-28T02:45:36;101111.13;;;6.05;100.00
64521;BME280;50896;46.714;17.322;2023-12-28T02:48:04;101105.97;;;6.04;100.00
64521;BME280;50896;46.714;17.322;2023-12-28T02:50:32;101102.81;;;5.98;100.00
64521;BME280;50896;46.714;17.322;2023-12-28T02:53:00;101112.75;;;5.95;100.00
64521;BME280;50896;46.714;17.322;2023-12-28T02:55:27;101101.81;;;5.88;100.00
64521;BME280;50896;46.714;17.322;2023-12-28T02:57:56;101097.59;;;5.86;100.00
64521;BME280;50896;46.714;17.322;2023-12-28T03:00:27;101090.88;;;5.81;100.00
64521;BME280;50896;46.714;17.322;2023-12-28T03:02:54;101097.84;;;5.82;100.00
64521;BME280;50896;46.714;17.322;2023-12-28T03:05:21;101087.91;;;5.86;100.00
64521;BME280;50896;46.714;17.322;2023-12-28T03:07:48;101076.03;;;5.92;100.00
64521;BME280;50896;46.714;17.322;2023-12-28T03:10:17;101085.16;;;5.88;100.00
64521;BME280;50896;46.714;17.322;2023-12-28T03:12:44;101075.66;;;5.85;100.00
64521;BME280;50896;46.714;17.322;2023-12-28T03:15:12;101075.16;;;5.80;100.00
64521;BME280;50896;46.714;17.322;2023-12-28T03:17:39;101072.50;;;5.80;100.00
64521;BME280;50896;46.714;17.322;2023-12-28T03:20:08;101068.31;;;5.77;100.00
64521;BME280;50896;46.714;17.322;2023-12-28T03:22:36;101060.88;;;5.82;100.00
64521;BME280;50896;46.714;17.322;2023-12-28T03:25:04;101065.94;;;5.86;100.00
64521;BME280;50896;46.714;17.322;2023-12-28T03:27:30;101056.44;;;5.83;100.00
64521;BME280;50896;46.714;17.322;2023-12-28T03:29:57;101066.88;;;5.85;100.00
64521;BME280;50896;46.714;17.322;2023-12-28T03:32:24;101061.50;;;5.86;100.00
64521;BME280;50896;46.714;17.322;2023-12-28T03:34:51;101057.06;;;5.87;100.00
64521;BME280;50896;46.714;17.322;2023-12-28T03:37:18;101049.94;;;5.76;100.00
64521;BME280;50896;46.714;17.322;2023-12-28T03:39:45;101050.56;;;5.79;100.00
64521;BME280;50896;46.714;17.322;2023-12-28T03:42:13;101051.75;;;5.75;100.00
64521;BME280;50896;46.714;17.322;2023-12-28T03:44:40;101054.41;;;5.75;100.00
64521;BME280;50896;46.714;17.322;2023-12-28T03:47:07;101063.03;;;5.77;100.00
64521;BME280;50896;46.714;17.322;2023-12-28T03:49:34;101061.56;;;5.73;100.00
64521;BME280;50896;46.714;17.322;2023-12-28T03:52:01;101058.50;;;5.79;100.00
64521;BME280;50896;46.714;17.322;2023-12-28T03:54:28;101048.16;;;5.76;100.00
64521;BME280;50896;46.714;17.322;2023-12-28T03:56:55;101056.09;;;5.76;100.00
64521;BME280;50896;46.714;17.322;2023-12-28T03:59:22;101046.75;;;5.84;100.00
64521;BME280;50896;46.714;17.322;2023-12-28T04:01:49;101046.75;;;5.84;100.00
64521;BME280;50896;46.714;17.322;2023-12-28T04:04:16;101047.19;;;5.77;100.00
64521;BME280;50896;46.714;17.322;2023-12-28T04:06:43;101047.19;;;5.77;100.00
64521;BME280;50896;46.714;17.322;2023-12-28T04:09:13;101047.78;;;5.70;100.00
64521;BME280;50896;46.714;17.322;2023-12-28T04:11:40;101052.19;;;5.69;100.00
64521;BME280;50896;46.714;17.322;2023-12-28T04:14:09;101049.56;;;5.69;100.00
64521;BME280;50896;46.714;17.322;2023-12-28T04:16:36;101059.28;;;5.69;100.00
64521;BME280;50896;46.714;17.322;2023-12-28T04:19:02;101032.91;;;5.69;100.00
64521;BME280;50896;46.714;17.322;2023-12-28T04:21:29;101046.47;;;5.75;100.00
64521;BME280;50896;46.714;17.322;2023-12-28T04:23:56;101041.44;;;5.72;100.00
64521;BME280;50896;46.714;17.322;2023-12-28T04:26:25;101038.06;;;5.70;100.00
64521;BME280;50896;46.714;17.322;2023-12-28T04:28:52;101037.22;;;5.70;100.00
64521;BME280;50896;46.714;17.322;2023-12-28T04:31:19;101028.13;;;5.74;100.00
64521;BME280;50896;46.714;17.322;2023-12-28T04:33:46;101021.28;;;5.71;100.00
64521;BME280;50896;46.714;17.322;2023-12-28T04:36:13;101018.13;;;5.66;100.00
64521;BME280;50896;46.714;17.322;2023-12-28T04:38:40;101016.25;;;5.68;100.00
64521;BME280;50896;46.714;17.322;2023-12-28T04:41:07;101018.66;;;5.71;100.00
64521;BME280;50896;46.714;17.322;2023-12-28T04:43:36;101017.44;;;5.75;100.00
64521;BME280;50896;46.714;17.322;2023-12-28T04:46:03;101028.25;;;5.72;100.00
64521;BME280;50896;46.714;17.322;2023-12-28T04:48:31;101034.75;;;5.79;100.00
64521;BME280;50896;46.714;17.322;2023-12-28T04:51:02;101034.75;;;5.79;100.00
64521;BME280;50896;46.714;17.322;2023-12-28T04:53:29;101027.28;;;5.85;100.00
64521;BME280;50896;46.714;17.322;2023-12-28T04:55:57;101026.69;;;5.81;100.00
64521;BME280;50896;46.714;17.322;2023-12-28T04:58:23;101024.66;;;5.85;100.00
64521;BME280;50896;46.714;17.322;2023-12-28T05:00:50;101032.09;;;5.79;100.00
64521;BME280;50896;46.714;17.322;2023-12-28T05:03:18;101030.28;;;5.80;100.00
64521;BME280;50896;46.714;17.322;2023-12-28T05:05:45;101031.97;;;5.81;100.00
64521;BME280;50896;46.714;17.322;2023-12-28T05:08:15;101029.69;;;5.76;100.00
64521;BME280;50896;46.714;17.322;2023-12-28T05:10:42;101021.88;;;5.75;100.00
64521;BME280;50896;46.714;17.322;2023-12-28T05:13:09;101031.94;;;5.70;100.00
64521;BME280;50896;46.714;17.322;2023-12-28T05:15:36;101030.16;;;5.70;100.00
64521;BME280;50896;46.714;17.322;2023-12-28T05:18:03;101029.75;;;5.63;100.00
64521;BME280;50896;46.714;17.322;2023-12-28T05:20:31;101025.66;;;5.59;100.00
64521;BME280;50896;46.714;17.322;2023-12-28T05:22:58;101028.94;;;5.63;100.00
64521;BME280;50896;46.714;17.322;2023-12-28T05:25:25;101024.16;;;5.68;100.00
64521;BME280;50896;46.714;17.322;2023-12-28T05:27:52;101022.22;;;5.70;100.00
64521;BME280;50896;46.714;17.322;2023-12-28T05:30:19;101010.09;;;5.68;100.00
64521;BME280;50896;46.714;17.322;2023-12-28T05:32:46;101011.56;;;5.72;100.00
64521;BME280;50896;46.714;17.322;2023-12-28T05:35:14;101008.81;;;5.73;100.00
64521;BME280;50896;46.714;17.322;2023-12-28T05:37:40;101010.50;;;5.74;100.00
64521;BME280;50896;46.714;17.322;2023-12-28T05:40:07;101013.38;;;5.71;100.00
64521;BME280;50896;46.714;17.322;2023-12-28T05:42:36;101019.59;;;5.70;100.00
64521;BME280;50896;46.714;17.322;2023-12-28T05:45:04;101022.00;;;5.73;100.00
64521;BME280;50896;46.714;17.322;2023-12-28T05:47:31;101019.81;;;5.67;100.00
64521;BME280;50896;46.714;17.322;2023-12-28T05:50:00;101022.09;;;5.72;100.00
64521;BME280;50896;46.714;17.322;2023-12-28T05:52:29;101018.75;;;5.70;100.00
64521;BME280;50896;46.714;17.322;2023-12-28T05:54:56;101014.31;;;5.70;100.00
64521;BME280;50896;46.714;17.322;2023-12-28T05:57:23;101016.72;;;5.73;100.00
64521;BME280;50896;46.714;17.322;2023-12-28T05:59:51;101014.91;;;5.62;100.00
64521;BME280;50896;46.714;17.322;2023-12-28T06:02:18;101020.66;;;5.68;100.00
64521;BME280;50896;46.714;17.322;2023-12-28T06:04:45;101030.81;;;5.61;100.00
64521;BME280;50896;46.714;17.322;2023-12-28T06:07:12;101032.25;;;5.54;100.00
64521;BME280;50896;46.714;17.322;2023-12-28T06:09:39;101032.47;;;5.51;100.00
64521;BME280;50896;46.714;17.322;2023-12-28T06:12:07;101034.97;;;5.41;100.00
64521;BME280;50896;46.714;17.322;2023-12-28T06:14:33;101030.03;;;5.36;100.00
64521;BME280;50896;46.714;17.322;2023-12-28T06:17:00;101019.44;;;5.25;100.00
64521;BME280;50896;46.714;17.322;2023-12-28T06:19:27;101023.25;;;5.21;100.00
64521;BME280;50896;46.714;17.322;2023-12-28T06:21:54;101037.31;;;5.33;100.00
64521;BME280;50896;46.714;17.322;2023-12-28T06:24:21;101030.34;;;5.31;100.00
64521;BME280;50896;46.714;17.322;2023-12-28T06:26:48;101030.69;;;5.27;100.00
64521;BME280;50896;46.714;17.322;2023-12-28T06:29:15;101040.47;;;5.38;100.00
64521;BME280;50896;46.714;17.322;2023-12-28T06:31:42;101035.19;;;5.38;100.00
64521;BME280;50896;46.714;17.322;2023-12-28T06:34:09;101038.78;;;5.37;100.00
64521;BME280;50896;46.714;17.322;2023-12-28T06:36:36;101033.00;;;5.31;100.00
64521;BME280;50896;46.714;17.322;2023-12-28T06:39:03;101043.75;;;5.28;100.00
64521;BME280;50896;46.714;17.322;2023-12-28T06:41:30;101053.25;;;5.31;100.00
64521;BME280;50896;46.714;17.322;2023-12-28T06:43:57;101046.63;;;5.25;100.00
64521;BME280;50896;46.714;17.322;2023-12-28T06:46:24;101056.94;;;5.28;100.00
64521;BME280;50896;46.714;17.322;2023-12-28T06:48:51;101064.16;;;5.26;100.00
64521;BME280;50896;46.714;17.322;2023-12-28T06:51:21;101065.44;;;5.21;100.00
64521;BME280;50896;46.714;17.322;2023-12-28T06:53:51;101056.00;;;5.29;100.00
64521;BME280;50896;46.714;17.322;2023-12-28T06:56:17;101051.34;;;5.33;100.00
64521;BME280;50896;46.714;17.322;2023-12-28T06:58:45;101058.81;;;5.39;100.00
64521;BME280;50896;46.714;17.322;2023-12-28T07:01:11;101061.31;;;5.41;100.00
64521;BME280;50896;46.714;17.322;2023-12-28T07:03:40;101057.22;;;5.37;100.00
64521;BME280;50896;46.714;17.322;2023-12-28T07:06:07;101055.47;;;5.37;100.00
64521;BME280;50896;46.714;17.322;2023-12-28T07:08:34;101062.63;;;5.35;100.00
64521;BME280;50896;46.714;17.322;2023-12-28T07:11:03;101054.94;;;5.32;100.00
64521;BME280;50896;46.714;17.322;2023-12-28T07:13:31;101059.31;;;5.44;100.00
64521;BME280;50896;46.714;17.322;2023-12-28T07:15:59;101056.44;;;5.47;100.00
64521;BME280;50896;46.714;17.322;2023-12-28T07:18:27;101060.31;;;5.55;100.00
64521;BME280;50896;46.714;17.322;2023-12-28T07:20:56;101058.91;;;5.62;100.00
64521;BME280;50896;46.714;17.322;2023-12-28T07:23:23;101058.94;;;5.73;100.00
64521;BME280;50896;46.714;17.322;2023-12-28T07:25:50;101063.03;;;5.77;100.00
64521;BME280;50896;46.714;17.322;2023-12-28T07:28:20;101063.53;;;5.82;100.00
64521;BME280;50896;46.714;17.322;2023-12-28T07:30:50;101053.22;;;5.91;100.00
64521;BME280;50896;46.714;17.322;2023-12-28T07:33:17;101047.47;;;5.97;100.00
64521;BME280;50896;46.714;17.322;2023-12-28T07:35:45;101051.09;;;5.96;100.00
64521;BME280;50896;46.714;17.322;2023-12-28T07:38:12;101043.34;;;6.06;100.00
64521;BME280;50896;46.714;17.322;2023-12-28T07:40:39;101046.84;;;6.18;100.00
64521;BME280;50896;46.714;17.322;2023-12-28T07:43:06;101038.09;;;6.17;100.00
64521;BME280;50896;46.714;17.322;2023-12-28T07:45:33;101048.53;;;6.30;100.00
64521;BME280;50896;46.714;17.322;2023-12-28T07:47:59;101044.44;;;6.26;100.00
64521;BME280;50896;46.714;17.322;2023-12-28T07:50:27;101053.06;;;6.28;100.00
64521;BME280;50896;46.714;17.322;2023-12-28T07:52:53;101054.31;;;6.35;100.00
64521;BME280;50896;46.714;17.322;2023-12-28T07:55:20;101056.69;;;6.38;100.00
64521;BME280;50896;46.714;17.322;2023-12-28T07:57:47;101066.41;;;6.38;100.00
64521;BME280;50896;46.714;17.322;2023-12-28T08:00:14;101058.84;;;6.44;100.00
64521;BME280;50896;46.714;17.322;2023-12-28T08:02:44;101072.06;;;6.44;100.00
64521;BME280;50896;46.714;17.322;2023-12-28T08:05:17;101072.31;;;6.53;100.00
64521;BME280;50896;46.714;17.322;2023-12-28T08:07:44;101073.75;;;6.57;100.00
64521;BME280;50896;46.714;17.322;2023-12-28T08:10:10;101077.13;;;6.59;100.00
64521;BME280;50896;46.714;17.322;2023-12-28T08:12:37;101083.63;;;6.55;100.00
64521;BME280;50896;46.714;17.322;2023-12-28T08:15:05;101092.00;;;6.37;100.00
64521;BME280;50896;46.714;17.322;2023-12-28T08:17:32;101083.34;;;6.24;100.00
64521;BME280;50896;46.714;17.322;2023-12-28T08:19:59;101079.25;;;6.20;100.00
64521;BME280;50896;46.714;17.322;2023-12-28T08:22:26;101084.50;;;6.08;100.00
64521;BME280;50896;46.714;17.322;2023-12-28T08:24:54;101095.19;;;6.18;100.00
64521;BME280;50896;46.714;17.322;2023-12-28T08:27:21;101093.66;;;6.15;100.00
64521;BME280;50896;46.714;17.322;2023-12-28T08:29:48;101100.13;;;6.11;100.00
64521;BME280;50896;46.714;17.322;2023-12-28T08:32:15;101095.78;;;6.10;100.00
64521;BME280;50896;46.714;17.322;2023-12-28T08:34:43;101105.16;;;6.14;100.00
64521;BME280;50896;46.714;17.322;2023-12-28T08:37:11;101101.47;;;6.28;100.00
64521;BME280;50896;46.714;17.322;2023-12-28T08:39:39;101101.34;;;6.30;100.00
64521;BME280;50896;46.714;17.322;2023-12-28T08:42:06;101104.78;;;6.19;100.00
64521;BME280;50896;46.714;17.322;2023-12-28T08:44:33;101102.91;;;6.32;100.00
64521;BME280;50896;46.714;17.322;2023-12-28T08:47:01;101108.31;;;6.20;100.00
64521;BME280;50896;46.714;17.322;2023-12-28T08:49:28;101106.38;;;6.22;100.00
64521;BME280;50896;46.714;17.322;2023-12-28T08:51:56;101109.16;;;6.31;100.00
64521;BME280;50896;46.714;17.322;2023-12-28T08:54:23;101108.91;;;6.35;100.00
64521;BME280;50896;46.714;17.322;2023-12-28T08:56:49;101107.84;;;6.37;100.00
64521;BME280;50896;46.714;17.322;2023-12-28T08:59:19;101108.09;;;6.45;100.00
64521;BME280;50896;46.714;17.322;2023-12-28T09:01:46;101114.09;;;6.47;100.00
64521;BME280;50896;46.714;17.322;2023-12-28T09:04:13;101109.78;;;6.46;100.00
64521;BME280;50896;46.714;17.322;2023-12-28T09:06:40;101114.56;;;6.41;100.00
64521;BME280;50896;46.714;17.322;2023-12-28T09:09:08;101109.66;;;6.37;100.00
64521;BME280;50896;46.714;17.322;2023-12-28T09:11:34;101108.19;;;6.32;100.00
64521;BME280;50896;46.714;17.322;2023-12-28T09:14:03;101107.13;;;6.46;100.00
64521;BME280;50896;46.714;17.322;2023-12-28T09:16:30;101110.47;;;6.48;100.00
64521;BME280;50896;46.714;17.322;2023-12-28T09:18:57;101101.84;;;6.46;100.00
64521;BME280;50896;46.714;17.322;2023-12-28T09:21:24;101100.66;;;6.39;100.00
64521;BME280;50896;46.714;17.322;2023-12-28T09:23:53;101096.69;;;6.56;100.00
64521;BME280;50896;46.714;17.322;2023-12-28T09:26:20;101104.63;;;6.67;100.00
64521;BME280;50896;46.714;17.322;2023-12-28T09:28:46;101102.34;;;6.74;100.00
64521;BME280;50896;46.714;17.322;2023-12-28T09:31:13;101097.53;;;6.79;100.00
64521;BME280;50896;46.714;17.322;2023-12-28T09:33:40;101090.69;;;6.77;100.00
64521;BME280;50896;46.714;17.322;2023-12-28T09:36:10;101086.94;;;6.79;100.00
64521;BME280;50896;46.714;17.322;2023-12-28T09:38:40;101084.53;;;6.88;100.00
64521;BME280;50896;46.714;17.322;2023-12-28T09:41:14;101074.56;;;6.91;100.00
64521;BME280;50896;46.714;17.322;2023-12-28T09:44:08;101078.53;;;6.97;100.00
64521;BME280;50896;46.714;17.322;2023-12-28T09:46:41;101075.25;;;7.05;100.00
64521;BME280;50896;46.714;17.322;2023-12-28T09:49:08;101073.97;;;7.10;100.00
64521;BME280;50896;46.714;17.322;2023-12-28T09:51:36;101070.56;;;7.08;100.00
64521;BME280;50896;46.714;17.322;2023-12-28T09:54:06;101068.97;;;7.17;100.00
64521;BME280;50896;46.714;17.322;2023-12-28T09:56:34;101075.59;;;7.23;100.00
64521;BME280;50896;46.714;17.322;2023-12-28T09:59:02;101066.91;;;7.32;100.00
64521;BME280;50896;46.714;17.322;2023-12-28T10:01:31;101070.84;;;7.38;100.00
64521;BME280;50896;46.714;17.322;2023-12-28T10:03:58;101070.69;;;7.50;100.00
64521;BME280;50896;46.714;17.322;2023-12-28T10:06:26;101071.97;;;7.56;100.00
64521;BME280;50896;46.714;17.322;2023-12-28T10:08:53;101072.13;;;7.55;100.00
64521;BME280;50896;46.714;17.322;2023-12-28T10:11:20;101068.78;;;7.52;100.00
64521;BME280;50896;46.714;17.322;2023-12-28T10:13:49;101069.19;;;7.69;100.00
64521;BME280;50896;46.714;17.322;2023-12-28T10:16:16;101061.69;;;7.74;100.00
64521;BME280;50896;46.714;17.322;2023-12-28T10:18:43;101058.88;;;7.87;100.00
64521;BME280;50896;46.714;17.322;2023-12-28T10:21:11;101049.44;;;7.94;100.00
64521;BME280;50896;46.714;17.322;2023-12-28T10:23:38;101042.31;;;7.95;100.00
64521;BME280;50896;46.714;17.322;2023-12-28T10:26:05;101039.28;;;7.99;100.00
64521;BME280;50896;46.714;17.322;2023-12-28T10:28:34;101038.59;;;7.76;100.00
64521;BME280;50896;46.714;17.322;2023-12-28T10:31:01;101043.59;;;7.58;100.00
64521;BME280;50896;46.714;17.322;2023-12-28T10:33:34;101035.34;;;7.51;100.00
64521;BME280;50896;46.714;17.322;2023-12-28T10:36:06;101038.19;;;7.60;100.00
64521;BME280;50896;46.714;17.322;2023-12-28T10:38:37;101032.38;;;7.66;100.00
64521;BME280;50896;46.714;17.322;2023-12-28T10:41:06;101025.56;;;7.84;100.00
64521;BME280;50896;46.714;17.322;2023-12-28T10:43:58;101026.91;;;8.31;100.00
64521;BME280;50896;46.714;17.322;2023-12-28T10:46:31;101017.34;;;8.80;100.00
64521;BME280;50896;46.714;17.322;2023-12-28T10:49:12;101021.31;;;9.74;100.00
64521;BME280;50896;46.714;17.322;2023-12-28T10:51:41;101020.19;;;10.24;100.00
64521;BME280;50896;46.714;17.322;2023-12-28T10:54:41;101015.50;;;10.55;100.00
64521;BME280;50896;46.714;17.322;2023-12-28T10:57:21;101017.28;;;10.65;100.00
64521;BME280;50896;46.714;17.322;2023-12-28T11:02:28;101005.84;;;10.07;100.00
64521;BME280;50896;46.714;17.322;2023-12-28T11:05:00;101003.69;;;10.30;100.00
64521;BME280;50896;46.714;17.322;2023-12-28T11:07:28;100996.06;;;10.55;100.00
64521;BME280;50896;46.714;17.322;2023-12-28T11:10:03;100996.84;;;10.65;100.00
64521;BME280;50896;46.714;17.322;2023-12-28T11:12:32;100999.09;;;11.06;100.00
64521;BME280;50896;46.714;17.322;2023-12-28T11:14:59;100998.44;;;11.66;100.00
64521;BME280;50896;46.714;17.322;2023-12-28T11:17:26;101002.41;;;12.83;100.00
64521;BME280;50896;46.714;17.322;2023-12-28T11:19:55;101001.16;;;14.43;100.00
64521;BME280;50896;46.714;17.322;2023-12-28T11:22:23;100994.28;;;15.96;62.10
64521;BME280;50896;46.714;17.322;2023-12-28T11:24:55;100973.28;;;17.17;55.06
64521;BME280;50896;46.714;17.322;2023-12-28T11:27:22;100962.97;;;18.89;46.69
64521;BME280;50896;46.714;17.322;2023-12-28T11:29:53;100955.44;;;20.19;43.24
64521;BME280;50896;46.714;17.322;2023-12-28T11:32:20;100945.50;;;21.03;40.81
64521;BME280;50896;46.714;17.322;2023-12-28T11:37:23;100938.88;;;22.91;36.82
64521;BME280;50896;46.714;17.322;2023-12-28T11:39:52;100935.13;;;23.46;36.08
64521;BME280;50896;46.714;17.322;2023-12-28T11:42:22;100930.38;;;23.77;35.00
64521;BME280;50896;46.714;17.322;2023-12-28T11:44:55;100924.75;;;23.67;34.73
64521;BME280;50896;46.714;17.322;2023-12-28T11:47:24;100930.09;;;23.08;35.07
64521;BME280;50896;46.714;17.322;2023-12-28T11:49:51;100924.66;;;22.96;35.58
64521;BME280;50896;46.714;17.322;2023-12-28T11:52:31;100926.09;;;22.68;35.53
64521;BME280;50896;46.714;17.322;2023-12-28T11:54:58;100927.75;;;20.82;38.03
64521;BME280;50896;46.714;17.322;2023-12-28T11:57:27;100932.72;;;19.68;40.36
64521;BME280;50896;46.714;17.322;2023-12-28T11:59:56;100930.94;;;18.59;42.87
64521;BME280;50896;46.714;17.322;2023-12-28T12:02:24;100943.16;;;17.22;45.71
64521;BME280;50896;46.714;17.322;2023-12-28T12:04:51;100942.63;;;15.64;51.10
64521;BME280;50896;46.714;17.322;2023-12-28T12:07:21;100946.81;;;14.50;56.04
64521;BME280;50896;46.714;17.322;2023-12-28T12:09:48;100947.91;;;13.19;63.59
64521;BME280;50896;46.714;17.322;2023-12-28T12:12:15;100938.63;;;12.05;72.91
64521;BME280;50896;46.714;17.322;2023-12-28T12:14:42;100944.09;;;11.33;81.79
64521;BME280;50896;46.714;17.322;2023-12-28T12:17:10;100938.81;;;10.60;92.92
64521;BME280;50896;46.714;17.322;2023-12-28T12:19:37;100947.97;;;10.11;100.00
64521;BME280;50896;46.714;17.322;2023-12-28T12:22:04;100942.19;;;9.78;100.00
64521;BME280;50896;46.714;17.322;2023-12-28T12:24:32;100942.97;;;9.50;100.00
64521;BME280;50896;46.714;17.322;2023-12-28T12:27:00;100951.38;;;9.26;100.00
64521;BME280;50896;46.714;17.322;2023-12-28T12:29:31;100949.47;;;9.85;100.00
64521;BME280;50896;46.714;17.322;2023-12-28T12:31:59;100953.16;;;10.68;100.00
64521;BME280;50896;46.714;17.322;2023-12-28T12:34:25;100943.84;;;10.26;100.00
64521;BME280;50896;46.714;17.322;2023-12-28T12:36:53;100940.13;;;9.71;100.00
64521;BME280;50896;46.714;17.322;2023-12-28T12:39:24;100940.59;;;9.37;100.00
64521;BME280;50896;46.714;17.322;2023-12-28T12:41:52;100939.34;;;9.02;100.00
64521;BME280;50896;46.714;17.322;2023-12-28T12:44:19;100935.00;;;8.82;100.00
64521;BME280;50896;46.714;17.322;2023-12-28T12:46:47;100938.66;;;8.71;100.00
64521;BME280;50896;46.714;17.322;2023-12-28T12:49:16;100929.84;;;8.70;100.00
64521;BME280;50896;46.714;17.322;2023-12-28T12:51:45;100933.31;;;8.51;100.00
64521;BME280;50896;46.714;17.322;2023-12-28T12:54:12;100918.47;;;8.39;100.00